Time;durP1;ratioP1;P1;durP2;ratioP2;P2;SDS_P1;SDS_P2;PMS_P1;PMS_P2;Temp;Humidity;BMP_temperature;BMP_pressure;BME280_temperature;BME280_humidity;BME280_pressure;Samples;Min_cycle;Max_cycle;Signal;HPM_P1;HPM_P2
2023/09/29 00:00:25;;;;;;;;;;;21.40;71.60;;;;;;5038503;28;1428;-66
2023/09/29 00:02:53;;;;;;;;;;;21.40;71.60;;;;;;5038516;28;1599;-67
2023/09/29 00:05:18;;;;;;;;;;;21.40;71.60;;;;;;5024306;28;1257;-66
2023/09/29 00:07:44;;;;;;;;;;;21.40;71.50;;;;;;5007382;28;1418;-66
2023/09/29 00:10:16;;;;;;;;;;;21.40;71.60;;;;;;5040114;28;1388;-66
2023/09/29 00:12:42;;;;;;;;;;;21.40;71.60;;;;;;5041328;28;1461;-67
2023/09/29 00:15:07;;;;;;;;;;;21.40;72.30;;;;;;5041110;28;1358;-67
2023/09/29 00:17:33;;;;;;;;;;;21.40;71.60;;;;;;5019788;28;1447;-66
2023/09/29 00:19:59;;;;;;;;;;;21.40;71.60;;;;;;5017587;28;1890;-66
2023/09/29 00:22:24;;;;;;;;;;;21.40;71.60;;;;;;5037842;28;1566;-66
2023/09/29 00:24:49;;;;;;;;;;;21.40;71.60;;;;;;5039284;28;1203;-67
2023/09/29 00:27:15;;;;;;;;;;;21.40;71.60;;;;;;5028853;28;1171;-66
2023/09/29 00:29:40;;;;;;;;;;;21.40;71.60;;;;;;5040544;28;1990;-67
2023/09/29 00:32:06;;;;;;;;;;;21.40;71.60;;;;;;5039410;28;1361;-66
2023/09/29 00:34:31;;;;;;;;;;;21.40;71.60;;;;;;5044223;28;1358;-67
2023/09/29 00:36:57;;;;;;;;;;;21.40;71.60;;;;;;5040158;28;1541;-67
2023/09/29 00:39:22;;;;;;;;;;;21.40;71.60;;;;;;5037023;28;1898;-66
2023/09/29 00:41:49;;;;;;;;;;;21.40;71.60;;;;;;5037871;28;1933;-66
2023/09/29 00:44:15;;;;;;;;;;;21.30;71.50;;;;;;5040071;28;1540;-66
2023/09/29 00:46:41;;;;;;;;;;;21.40;71.60;;;;;;5037955;28;2235;-66
2023/09/29 00:49:06;;;;;;;;;;;21.40;71.60;;;;;;5035400;28;1376;-66
2023/09/29 00:51:32;;;;;;;;;;;21.40;71.70;;;;;;5038284;28;1483;-66
2023/09/29 00:53:57;;;;;;;;;;;21.40;71.60;;;;;;5021524;28;1747;-66
2023/09/29 00:56:23;;;;;;;;;;;21.40;71.60;;;;;;5039129;28;1448;-66
2023/09/29 00:58:49;;;;;;;;;;;21.40;71.60;;;;;;5044569;28;1965;-66
2023/09/29 01:01:14;;;;;;;;;;;21.40;71.70;;;;;;5027352;28;1603;-67
2023/09/29 01:03:40;;;;;;;;;;;21.40;71.70;;;;;;5044103;28;1364;-66
2023/09/29 01:06:08;;;;;;;;;;;21.40;71.70;;;;;;5044078;28;1401;-66
2023/09/29 01:08:33;;;;;;;;;;;21.40;71.70;;;;;;5043152;28;1841;-66
2023/09/29 01:10:59;;;;;;;;;;;21.40;71.70;;;;;;5042646;28;1857;-67
2023/09/29 01:13:24;;;;;;;;;;;21.40;71.70;;;;;;5043837;28;1616;-66
2023/09/29 01:15:50;;;;;;;;;;;21.40;71.70;;;;;;5043998;28;1379;-66
2023/09/29 01:18:16;;;;;;;;;;;21.40;71.70;;;;;;5039402;28;1914;-66
2023/09/29 01:20:41;;;;;;;;;;;21.40;71.70;;;;;;5041018;28;1299;-66
2023/09/29 01:23:07;;;;;;;;;;;21.40;71.70;;;;;;5029195;28;1410;-66
2023/09/29 01:25:33;;;;;;;;;;;21.40;71.70;;;;;;5041393;28;1196;-66
2023/09/29 01:27:59;;;;;;;;;;;21.40;71.70;;;;;;5023973;28;1345;-66
2023/09/29 01:30:27;;;;;;;;;;;21.40;71.70;;;;;;5026038;28;1379;-66
2023/09/29 01:32:53;;;;;;;;;;;21.40;71.70;;;;;;5041509;28;1469;-66
2023/09/29 01:35:23;;;;;;;;;;;21.40;71.70;;;;;;5040737;28;1494;-66
2023/09/29 01:37:49;;;;;;;;;;;21.40;71.70;;;;;;5041487;28;1965;-66
2023/09/29 01:40:14;;;;;;;;;;;21.40;71.70;;;;;;5041325;28;1423;-66
2023/09/29 01:42:40;;;;;;;;;;;21.40;71.80;;;;;;5024583;28;1193;-66
2023/09/29 01:45:11;;;;;;;;;;;21.40;71.70;;;;;;5040282;28;1272;-65
2023/09/29 01:47:38;;;;;;;;;;;21.40;71.70;;;;;;5042389;28;1295;-66
2023/09/29 01:50:05;;;;;;;;;;;21.40;71.80;;;;;;5039170;28;1207;-66
2023/09/29 01:52:31;;;;;;;;;;;21.40;71.80;;;;;;5037999;28;1303;-66
2023/09/29 01:54:56;;;;;;;;;;;21.40;71.80;;;;;;5040576;28;1278;-66
2023/09/29 01:57:22;;;;;;;;;;;21.40;71.80;;;;;;5039687;28;1311;-66
2023/09/29 01:59:48;;;;;;;;;;;21.40;71.80;;;;;;5041156;28;1902;-66
2023/09/29 02:02:14;;;;;;;;;;;21.40;71.80;;;;;;5040822;28;1231;-66
2023/09/29 02:04:40;;;;;;;;;;;21.40;71.80;;;;;;5023673;28;1284;-66
2023/09/29 02:07:05;;;;;;;;;;;21.40;71.80;;;;;;5020280;28;1340;-66
2023/09/29 02:09:31;;;;;;;;;;;21.30;71.70;;;;;;5019298;28;1425;-66
2023/09/29 02:11:56;;;;;;;;;;;21.30;71.70;;;;;;5039766;28;995;-65
2023/09/29 02:14:23;;;;;;;;;;;21.40;71.80;;;;;;5041597;28;1090;-66
2023/09/29 02:16:48;;;;;;;;;;;21.40;71.80;;;;;;5040126;28;1460;-66
2023/09/29 02:19:14;;;;;;;;;;;21.30;71.80;;;;;;5041588;28;1906;-66
2023/09/29 02:21:41;;;;;;;;;;;21.30;71.80;;;;;;5042056;28;1409;-66
2023/09/29 02:24:07;;;;;;;;;;;21.40;71.80;;;;;;5039726;28;1445;-67
2023/09/29 02:26:34;;;;;;;;;;;21.40;71.80;;;;;;5042861;28;1478;-66
2023/09/29 02:29:00;;;;;;;;;;;21.30;71.70;;;;;;5044129;28;1317;-66
2023/09/29 02:31:26;;;;;;;;;;;21.40;71.80;;;;;;5044691;28;1508;-66
2023/09/29 02:33:53;;;;;;;;;;;21.40;71.80;;;;;;5040950;28;1212;-66
2023/09/29 02:36:18;;;;;;;;;;;21.30;71.80;;;;;;5039781;28;1557;-66
2023/09/29 02:38:44;;;;;;;;;;;21.30;71.80;;;;;;5038239;28;1906;-65
2023/09/29 02:41:09;;;;;;;;;;;21.40;71.80;;;;;;5039587;28;1165;-66
2023/09/29 02:43:35;;;;;;;;;;;21.30;71.80;;;;;;5043148;28;1347;-66
2023/09/29 02:46:00;;;;;;;;;;;21.30;71.80;;;;;;5038962;28;1086;-66
2023/09/29 02:48:27;;;;;;;;;;;21.30;71.80;;;;;;5038560;28;1083;-65
2023/09/29 02:50:53;;;;;;;;;;;21.30;71.80;;;;;;5039926;28;1352;-65
2023/09/29 02:53:18;;;;;;;;;;;21.40;71.90;;;;;;5042425;28;1555;-66
2023/09/29 02:55:45;;;;;;;;;;;21.30;71.80;;;;;;5029332;28;1447;-65
2023/09/29 02:58:11;;;;;;;;;;;21.30;71.80;;;;;;5039553;28;1914;-66
2023/09/29 03:00:38;;;;;;;;;;;21.40;72.00;;;;;;5041113;28;1295;-65
2023/09/29 03:03:03;;;;;;;;;;;21.30;71.90;;;;;;5040832;28;1331;-66
2023/09/29 03:05:29;;;;;;;;;;;21.30;71.80;;;;;;5036488;28;1393;-66
2023/09/29 03:07:57;;;;;;;;;;;21.30;71.90;;;;;;5036909;28;1230;-65
2023/09/29 03:10:25;;;;;;;;;;;21.30;71.80;;;;;;5040431;28;1500;-65
2023/09/29 03:12:50;;;;;;;;;;;21.30;71.80;;;;;;5041382;28;1578;-66
2023/09/29 03:15:16;;;;;;;;;;;21.30;71.80;;;;;;5043503;28;1009;-66
2023/09/29 03:17:45;;;;;;;;;;;21.30;71.90;;;;;;5039640;28;1910;-66
2023/09/29 03:20:11;;;;;;;;;;;21.30;71.80;;;;;;5040615;28;1425;-67
2023/09/29 03:22:39;;;;;;;;;;;21.30;71.90;;;;;;5045282;28;1323;-66
2023/09/29 03:25:05;;;;;;;;;;;21.30;71.80;;;;;;5038200;28;1278;-66
2023/09/29 03:27:31;;;;;;;;;;;21.30;71.90;;;;;;5037646;28;1238;-66
2023/09/29 03:29:58;;;;;;;;;;;21.30;72.60;;;;;;5042091;28;1562;-66
2023/09/29 03:32:24;;;;;;;;;;;21.30;71.80;;;;;;5037466;28;1372;-65
2023/09/29 03:34:50;;;;;;;;;;;21.30;71.90;;;;;;5040215;28;1442;-65
2023/09/29 03:37:15;;;;;;;;;;;21.30;71.90;;;;;;5040779;28;1334;-65
2023/09/29 03:39:41;;;;;;;;;;;21.30;71.90;;;;;;5045811;28;1987;-64
2023/09/29 03:42:06;;;;;;;;;;;21.30;71.90;;;;;;5044576;28;1249;-64
2023/09/29 03:44:32;;;;;;;;;;;21.30;71.90;;;;;;5039781;28;1581;-66
2023/09/29 03:46:58;;;;;;;;;;;21.30;71.90;;;;;;5038945;28;1368;-66
2023/09/29 03:49:23;;;;;;;;;;;21.30;71.90;;;;;;5037901;28;1369;-66
2023/09/29 03:51:49;;;;;;;;;;;21.30;71.90;;;;;;5038598;28;1415;-66
2023/09/29 03:54:14;;;;;;;;;;;21.30;72.00;;;;;;5039443;28;1570;-65
2023/09/29 03:56:39;;;;;;;;;;;21.30;71.90;;;;;;5040806;28;1381;-64
2023/09/29 03:59:05;;;;;;;;;;;21.30;72.00;;;;;;5040576;28;1964;-64
2023/09/29 04:01:31;;;;;;;;;;;21.30;71.90;;;;;;5046828;28;1395;-64
2023/09/29 04:03:56;;;;;;;;;;;21.30;72.00;;;;;;5047279;28;1480;-64
2023/09/29 04:06:22;;;;;;;;;;;21.30;71.90;;;;;;5039551;28;1232;-64
2023/09/29 04:08:47;;;;;;;;;;;21.30;71.90;;;;;;5040036;28;1625;-65
2023/09/29 04:11:13;;;;;;;;;;;21.30;72.00;;;;;;5040165;28;1371;-65
2023/09/29 04:13:38;;;;;;;;;;;21.30;72.00;;;;;;5039929;28;1219;-65
2023/09/29 04:16:06;;;;;;;;;;;21.30;72.00;;;;;;5040447;28;1511;-66
2023/09/29 04:18:32;;;;;;;;;;;21.30;72.00;;;;;;5041214;28;1979;-66
2023/09/29 04:20:59;;;;;;;;;;;21.30;72.00;;;;;;5040334;28;1397;-66
2023/09/29 04:23:24;;;;;;;;;;;21.30;72.00;;;;;;5039824;28;1354;-66
2023/09/29 04:25:50;;;;;;;;;;;21.30;72.00;;;;;;5040051;28;1681;-65
2023/09/29 04:28:15;;;;;;;;;;;21.30;72.00;;;;;;5030790;28;1922;-67
2023/09/29 04:30:41;;;;;;;;;;;21.30;72.00;;;;;;5036023;28;1683;-67
2023/09/29 04:33:06;;;;;;;;;;;21.30;72.00;;;;;;5039864;28;1361;-67
2023/09/29 04:35:32;;;;;;;;;;;21.30;72.00;;;;;;5042880;28;1303;-66
2023/09/29 04:37:57;;;;;;;;;;;21.30;72.00;;;;;;5044682;28;1918;-65
2023/09/29 04:40:23;;;;;;;;;;;21.30;72.00;;;;;;5042106;28;1284;-66
2023/09/29 04:42:49;;;;;;;;;;;21.30;72.70;;;;;;5042501;28;1444;-68
2023/09/29 04:45:14;;;;;;;;;;;21.30;72.00;;;;;;5025056;28;1155;-66
2023/09/29 04:47:40;;;;;;;;;;;21.30;72.00;;;;;;5026804;28;1240;-65
2023/09/29 04:50:05;;;;;;;;;;;21.30;72.00;;;;;;5043341;28;1439;-67
2023/09/29 04:52:31;;;;;;;;;;;21.30;72.00;;;;;;5043719;28;1292;-67
2023/09/29 04:54:56;;;;;;;;;;;21.30;72.00;;;;;;5025699;28;1204;-68
2023/09/29 04:57:22;;;;;;;;;;;21.30;72.10;;;;;;5038030;28;1266;-67
2023/09/29 04:59:47;;;;;;;;;;;21.30;72.00;;;;;;5024755;28;1972;-66
2023/09/29 05:02:13;;;;;;;;;;;21.30;72.00;;;;;;5042653;28;1283;-66
2023/09/29 05:04:39;;;;;;;;;;;21.30;72.00;;;;;;5043994;28;1324;-66
2023/09/29 05:07:05;;;;;;;;;;;21.30;72.00;;;;;;5040885;28;1312;-68
2023/09/29 05:09:30;;;;;;;;;;;21.30;72.00;;;;;;5043835;28;1373;-68
2023/09/29 05:11:55;;;;;;;;;;;21.30;72.10;;;;;;5042908;28;1126;-66
2023/09/29 05:14:21;;;;;;;;;;;21.30;72.10;;;;;;5038300;28;1429;-67
2023/09/29 05:16:47;;;;;;;;;;;21.30;72.10;;;;;;5041195;28;1348;-67
2023/09/29 05:19:13;;;;;;;;;;;21.30;72.10;;;;;;5041022;28;1973;-68
2023/09/29 05:21:38;;;;;;;;;;;21.30;72.10;;;;;;5042514;28;1205;-68
2023/09/29 05:24:04;;;;;;;;;;;21.30;72.10;;;;;;5039821;28;1088;-67
2023/09/29 05:26:29;;;;;;;;;;;21.30;72.10;;;;;;5042070;28;1776;-67
2023/09/29 05:28:55;;;;;;;;;;;21.30;72.10;;;;;;5041819;28;1375;-68
2023/09/29 05:31:21;;;;;;;;;;;21.30;72.10;;;;;;5040692;28;1001;-68
2023/09/29 05:33:46;;;;;;;;;;;21.30;72.10;;;;;;5041476;28;1054;-67
2023/09/29 05:36:11;;;;;;;;;;;21.30;72.10;;;;;;5037909;28;1362;-67
2023/09/29 05:38:37;;;;;;;;;;;21.30;72.10;;;;;;5039913;28;1958;-67
2023/09/29 05:41:02;;;;;;;;;;;21.30;72.10;;;;;;5042546;28;1489;-67
2023/09/29 05:43:28;;;;;;;;;;;21.30;72.10;;;;;;5044837;28;1354;-67
2023/09/29 05:45:53;;;;;;;;;;;21.30;72.10;;;;;;5041939;28;1487;-67
2023/09/29 05:48:19;;;;;;;;;;;21.30;72.10;;;;;;5042806;28;1431;-67
2023/09/29 05:50:45;;;;;;;;;;;21.30;71.30;;;;;;5043353;28;1616;-67
2023/09/29 05:53:11;;;;;;;;;;;21.30;70.20;;;;;;5040491;28;1449;-67
2023/09/29 05:55:39;;;;;;;;;;;21.30;69.80;;;;;;5023189;28;1473;-67
2023/09/29 05:58:05;;;;;;;;;;;21.30;69.60;;;;;;5038361;28;1961;-67
2023/09/29 06:00:30;;;;;;;;;;;21.30;69.10;;;;;;5042183;28;1419;-67
2023/09/29 06:02:56;;;;;;;;;;;21.30;68.50;;;;;;5041655;28;1259;-66
2023/09/29 06:05:21;;;;;;;;;;;21.30;68.60;;;;;;5045417;28;1313;-66
2023/09/29 06:07:47;;;;;;;;;;;21.30;68.70;;;;;;5040890;28;1531;-66
2023/09/29 06:10:13;;;;;;;;;;;21.30;68.70;;;;;;5042526;28;1315;-67
2023/09/29 06:12:38;;;;;;;;;;;21.30;68.00;;;;;;5027235;28;1392;-68
2023/09/29 06:15:04;;;;;;;;;;;21.30;68.10;;;;;;5035792;28;1518;-67
2023/09/29 06:17:30;;;;;;;;;;;21.30;67.90;;;;;;5041536;28;1307;-67
2023/09/29 06:19:55;;;;;;;;;;;21.30;67.40;;;;;;5018049;28;1965;-67
2023/09/29 06:22:21;;;;;;;;;;;21.20;66.90;;;;;;5042750;28;1732;-68
2023/09/29 06:24:47;;;;;;;;;;;21.20;66.80;;;;;;5039948;28;1384;-68
2023/09/29 06:27:12;;;;;;;;;;;21.20;66.90;;;;;;5040731;28;1514;-68
2023/09/29 06:29:41;;;;;;;;;;;21.20;66.70;;;;;;5021945;28;1618;-68
2023/09/29 06:32:08;;;;;;;;;;;21.20;66.80;;;;;;5040943;28;1373;-65
2023/09/29 06:34:34;;;;;;;;;;;21.20;67.20;;;;;;5042205;28;1237;-65
2023/09/29 06:37:00;;;;;;;;;;;21.20;66.40;;;;;;5041476;28;1368;-65
2023/09/29 06:39:26;;;;;;;;;;;21.20;65.90;;;;;;5040586;28;1971;-66
2023/09/29 06:41:51;;;;;;;;;;;21.20;65.80;;;;;;5039200;28;1704;-66
2023/09/29 06:44:17;;;;;;;;;;;21.20;66.30;;;;;;5038686;28;1356;-68
2023/09/29 06:46:43;;;;;;;;;;;21.20;66.00;;;;;;5024576;28;1259;-68
2023/09/29 06:49:08;;;;;;;;;;;21.20;66.20;;;;;;5044811;28;1536;-68
2023/09/29 06:51:34;;;;;;;;;;;21.10;66.70;;;;;;5042088;28;1365;-69
2023/09/29 06:53:59;;;;;;;;;;;21.10;66.60;;;;;;5039641;28;1567;-66
2023/09/29 06:56:25;;;;;;;;;;;21.10;66.70;;;;;;5040458;28;1351;-67
2023/09/29 06:58:50;;;;;;;;;;;21.10;66.80;;;;;;5043514;28;1918;-66
2023/09/29 07:01:16;;;;;;;;;;;21.10;66.80;;;;;;5038403;28;1490;-66
2023/09/29 07:03:41;;;;;;;;;;;21.10;67.00;;;;;;5041368;28;1606;-65
2023/09/29 07:06:07;;;;;;;;;;;21.10;66.60;;;;;;5038496;28;1362;-65
2023/09/29 07:08:32;;;;;;;;;;;21.10;66.90;;;;;;5040931;28;1532;-66
2023/09/29 07:10:58;;;;;;;;;;;21.10;66.70;;;;;;5039465;28;1479;-66
2023/09/29 07:13:24;;;;;;;;;;;21.10;66.90;;;;;;5042487;28;1455;-66
2023/09/29 07:15:49;;;;;;;;;;;21.10;66.60;;;;;;5036665;28;1444;-65
2023/09/29 07:18:16;;;;;;;;;;;21.10;66.60;;;;;;5036592;28;1906;-66
2023/09/29 07:20:44;;;;;;;;;;;21.10;66.90;;;;;;5021939;28;1391;-65
2023/09/29 07:23:10;;;;;;;;;;;21.10;66.60;;;;;;5041289;28;1482;-65
2023/09/29 07:25:37;;;;;;;;;;;21.10;66.90;;;;;;5039755;28;1366;-65
2023/09/29 07:28:13;;;;;;;;;;;21.10;66.50;;;;;;5023824;28;1859;-66
2023/09/29 07:30:38;;;;;;;;;;;21.10;66.80;;;;;;5023491;28;1654;-66
2023/09/29 07:33:04;;;;;;;;;;;21.10;66.80;;;;;;5028040;28;1418;-66
2023/09/29 07:35:29;;;;;;;;;;;21.10;66.80;;;;;;5039999;28;1257;-66
2023/09/29 07:37:55;;;;;;;;;;;21.10;66.70;;;;;;5037557;28;1902;-66
2023/09/29 07:40:21;;;;;;;;;;;21.10;67.10;;;;;;5041048;28;1532;-66
2023/09/29 07:42:47;;;;;;;;;;;21.10;66.90;;;;;;5041233;28;1279;-66
2023/09/29 07:45:13;;;;;;;;;;;21.10;66.70;;;;;;5038681;28;1254;-65
2023/09/29 07:47:41;;;;;;;;;;;21.10;66.70;;;;;;5036304;28;1359;-66
2023/09/29 07:50:07;;;;;;;;;;;21.10;67.10;;;;;;5040745;28;1365;-66
2023/09/29 07:52:37;;;;;;;;;;;21.10;66.80;;;;;;5044199;28;1455;-66
2023/09/29 07:55:02;;;;;;;;;;;21.10;66.70;;;;;;5039302;28;1362;-65
2023/09/29 07:57:28;;;;;;;;;;;21.10;66.90;;;;;;5037808;28;1376;-65
2023/09/29 07:59:53;;;;;;;;;;;21.10;66.60;;;;;;5037692;28;1910;-65
2023/09/29 08:02:19;;;;;;;;;;;21.10;66.60;;;;;;5037067;28;1470;-65
2023/09/29 08:04:44;;;;;;;;;;;21.10;66.90;;;;;;5040754;28;1530;-66
2023/09/29 08:07:11;;;;;;;;;;;21.10;66.70;;;;;;5038795;28;1297;-66
2023/09/29 08:09:37;;;;;;;;;;;21.10;66.90;;;;;;5042881;28;1362;-65
2023/09/29 08:12:03;;;;;;;;;;;21.10;66.90;;;;;;5043856;28;976;-65
2023/09/29 08:14:30;;;;;;;;;;;21.10;66.90;;;;;;5025492;28;1639;-66
2023/09/29 08:16:55;;;;;;;;;;;21.10;66.80;;;;;;5028008;28;1126;-65
2023/09/29 08:19:20;;;;;;;;;;;21.10;66.90;;;;;;5043520;28;1902;-65
2023/09/29 08:21:47;;;;;;;;;;;21.10;67.00;;;;;;5042948;28;1115;-65
2023/09/29 08:24:13;;;;;;;;;;;21.10;66.90;;;;;;5042911;28;1122;-65
2023/09/29 08:26:39;;;;;;;;;;;21.00;66.80;;;;;;5043301;28;1168;-66
2023/09/29 08:29:06;;;;;;;;;;;21.10;66.90;;;;;;5045905;28;1278;-65
2023/09/29 08:31:31;;;;;;;;;;;21.10;67.00;;;;;;5040364;28;1197;-65
2023/09/29 08:33:57;;;;;;;;;;;21.10;67.10;;;;;;5040324;28;1318;-65
2023/09/29 08:36:23;;;;;;;;;;;21.10;67.20;;;;;;5042749;28;1245;-66
2023/09/29 08:38:48;;;;;;;;;;;21.10;67.30;;;;;;5025938;28;1891;-65
2023/09/29 08:41:14;;;;;;;;;;;21.10;67.40;;;;;;5041530;28;1470;-66
2023/09/29 08:43:39;;;;;;;;;;;21.10;67.60;;;;;;5041081;28;1467;-65
2023/09/29 08:46:05;;;;;;;;;;;21.10;67.60;;;;;;5041811;28;1388;-65
2023/09/29 08:48:32;;;;;;;;;;;21.10;67.70;;;;;;5043944;28;1417;-66
2023/09/29 08:51:00;;;;;;;;;;;21.10;67.80;;;;;;5043896;28;1406;-66
2023/09/29 08:53:26;;;;;;;;;;;21.10;67.90;;;;;;5031757;28;2388;-66
2023/09/29 08:55:56;;;;;;;;;;;21.10;67.90;;;;;;5026652;28;1666;-66
2023/09/29 08:58:21;;;;;;;;;;;21.10;68.10;;;;;;5042419;28;1906;-66
2023/09/29 09:00:48;;;;;;;;;;;21.10;68.20;;;;;;5041860;28;1364;-66
2023/09/29 09:03:14;;;;;;;;;;;21.10;68.30;;;;;;5020963;28;863;-66
2023/09/29 09:05:39;;;;;;;;;;;21.10;68.30;;;;;;5040830;28;1152;-66
2023/09/29 09:08:05;;;;;;;;;;;21.10;68.40;;;;;;5038560;28;1957;-67
2023/09/29 09:10:37;;;;;;;;;;;21.10;68.50;;;;;;5042178;28;1366;-66
2023/09/29 09:13:03;;;;;;;;;;;21.10;68.50;;;;;;5041716;28;1264;-66
2023/09/29 09:15:30;;;;;;;;;;;21.10;68.60;;;;;;5040201;28;1347;-66
2023/09/29 09:17:56;;;;;;;;;;;21.10;68.60;;;;;;5043896;28;1906;-66
2023/09/29 09:20:21;;;;;;;;;;;21.20;68.70;;;;;;5042336;28;1466;-66
2023/09/29 09:22:57;;;;;;;;;;;21.20;68.80;;;;;;5042934;28;1123;-66
2023/09/29 09:25:35;;;;;;;;;;;21.20;68.80;;;;;;5037641;28;1352;-67
2023/09/29 09:28:03;;;;;;;;;;;21.20;69.00;;;;;;5040092;28;1270;-66
2023/09/29 09:30:35;;;;;;;;;;;21.20;69.00;;;;;;5027275;28;1431;-67
2023/09/29 09:33:01;;;;;;;;;;;21.20;69.80;;;;;;5040555;28;1454;-66
2023/09/29 09:35:27;;;;;;;;;;;21.20;68.80;;;;;;5019232;28;1396;-66
2023/09/29 09:37:53;;;;;;;;;;;21.20;68.90;;;;;;5041600;28;1401;-66
2023/09/29 09:40:19;;;;;;;;;;;21.20;69.00;;;;;;5043553;28;1961;-67
2023/09/29 09:42:44;;;;;;;;;;;21.20;69.20;;;;;;5042799;28;1400;-66
2023/09/29 09:45:11;;;;;;;;;;;21.20;69.40;;;;;;5039078;28;1255;-67
2023/09/29 09:47:37;;;;;;;;;;;21.20;69.40;;;;;;5044404;28;1363;-66
2023/09/29 09:50:03;;;;;;;;;;;21.20;69.50;;;;;;5039255;28;1497;-66
2023/09/29 09:52:29;;;;;;;;;;;21.20;69.80;;;;;;5024417;28;1214;-66
2023/09/29 09:54:57;;;;;;;;;;;21.20;69.90;;;;;;5038587;28;1316;-66
2023/09/29 09:57:29;;;;;;;;;;;21.20;69.90;;;;;;5039782;28;1300;-67
2023/09/29 09:59:54;;;;;;;;;;;21.20;69.90;;;;;;5023572;28;1922;-66
2023/09/29 10:02:20;;;;;;;;;;;21.20;70.20;;;;;;5040980;28;1286;-66
2023/09/29 10:04:46;;;;;;;;;;;21.20;70.00;;;;;;5024433;28;1380;-66
2023/09/29 10:07:14;;;;;;;;;;;21.20;70.30;;;;;;5024134;28;1422;-66
2023/09/29 10:09:43;;;;;;;;;;;21.20;70.20;;;;;;5026185;28;1593;-67
2023/09/29 10:12:20;;;;;;;;;;;21.30;70.40;;;;;;5039045;28;1265;-66
2023/09/29 10:14:45;;;;;;;;;;;21.30;70.30;;;;;;5025659;28;1226;-67
2023/09/29 10:17:13;;;;;;;;;;;21.30;70.30;;;;;;5040179;28;1364;-67
2023/09/29 10:19:38;;;;;;;;;;;21.30;70.20;;;;;;5020997;28;1979;-66
2023/09/29 10:22:04;;;;;;;;;;;21.30;70.20;;;;;;5040060;28;1332;-66
2023/09/29 10:24:30;;;;;;;;;;;21.30;70.20;;;;;;5037933;28;1555;-66
2023/09/29 10:27:11;;;;;;;;;;;21.30;70.30;;;;;;5023753;28;1659;-66
2023/09/29 10:29:38;;;;;;;;;;;21.30;70.20;;;;;;5026653;28;1519;-66
2023/09/29 10:32:10;;;;;;;;;;;21.30;70.20;;;;;;5041533;28;1319;-66
2023/09/29 10:34:36;;;;;;;;;;;21.30;70.20;;;;;;5041970;28;1371;-67
2023/09/29 10:37:02;;;;;;;;;;;21.30;70.20;;;;;;5022239;28;1629;-66
2023/09/29 10:39:29;;;;;;;;;;;21.30;70.20;;;;;;5024817;28;1985;-66
2023/09/29 10:42:12;;;;;;;;;;;21.30;70.20;;;;;;5037835;28;1551;-66
2023/09/29 10:44:52;;;;;;;;;;;21.30;70.20;;;;;;5035884;28;1410;-66
2023/09/29 10:47:36;;;;;;;;;;;21.30;69.90;;;;;;5039626;28;1459;-66
2023/09/29 10:50:05;;;;;;;;;;;21.40;70.00;;;;;;5038426;28;1584;-66
2023/09/29 10:52:30;;;;;;;;;;;21.40;70.00;;;;;;5040403;28;1334;-66
2023/09/29 10:54:59;;;;;;;;;;;21.30;69.90;;;;;;5037589;28;1357;-66
2023/09/29 10:57:28;;;;;;;;;;;21.40;69.90;;;;;;5038445;28;1445;-66
2023/09/29 10:59:59;;;;;;;;;;;21.40;69.70;;;;;;5039393;28;1914;-66
2023/09/29 11:02:30;;;;;;;;;;;21.40;69.60;;;;;;5038354;28;1283;-65
2023/09/29 11:04:57;;;;;;;;;;;21.40;69.70;;;;;;5041374;28;1026;-65
2023/09/29 11:07:23;;;;;;;;;;;21.40;69.70;;;;;;5039955;28;935;-66
2023/09/29 11:09:48;;;;;;;;;;;21.40;69.50;;;;;;5040238;28;1276;-66
2023/09/29 11:12:17;;;;;;;;;;;21.40;69.40;;;;;;5040761;28;938;-66
2023/09/29 11:14:43;;;;;;;;;;;21.40;69.50;;;;;;5039511;28;1364;-65
2023/09/29 11:17:08;;;;;;;;;;;21.40;69.50;;;;;;5043196;28;1325;-65
2023/09/29 11:19:35;;;;;;;;;;;21.40;69.50;;;;;;5037404;28;1910;-65
2023/09/29 11:22:03;;;;;;;;;;;21.40;69.60;;;;;;5044057;28;1515;-67
2023/09/29 11:24:37;;;;;;;;;;;21.40;69.50;;;;;;5044082;28;1522;-66
2023/09/29 11:27:03;;;;;;;;;;;21.40;69.60;;;;;;5042057;28;1328;-66
2023/09/29 11:29:31;;;;;;;;;;;21.40;69.60;;;;;;5041698;28;1395;-66
2023/09/29 11:31:57;;;;;;;;;;;21.40;69.70;;;;;;5043375;28;1609;-65
2023/09/29 11:34:23;;;;;;;;;;;21.40;69.70;;;;;;5042719;28;1309;-65
2023/09/29 11:36:48;;;;;;;;;;;21.40;69.70;;;;;;5041078;28;1753;-65
2023/09/29 11:39:18;;;;;;;;;;;21.40;69.80;;;;;;5045119;28;1915;-65
2023/09/29 11:41:45;;;;;;;;;;;21.40;69.80;;;;;;5025619;28;1361;-64
2023/09/29 11:44:10;;;;;;;;;;;21.40;69.90;;;;;;5025454;28;1546;-65
2023/09/29 11:46:36;;;;;;;;;;;21.40;69.90;;;;;;5039518;28;2063;-64
2023/09/29 11:49:02;;;;;;;;;;;21.40;69.90;;;;;;5041760;28;1322;-66
2023/09/29 11:51:27;;;;;;;;;;;21.40;69.80;;;;;;5038199;28;1559;-67
2023/09/29 11:53:54;;;;;;;;;;;21.40;69.80;;;;;;5041526;28;1333;-66
2023/09/29 11:56:20;;;;;;;;;;;21.40;69.90;;;;;;5040931;28;1396;-66
2023/09/29 11:58:46;;;;;;;;;;;21.40;69.80;;;;;;5021645;28;1914;-66
2023/09/29 12:01:12;;;;;;;;;;;21.50;69.90;;;;;;5038089;28;1507;-65
2023/09/29 12:03:38;;;;;;;;;;;21.50;69.90;;;;;;5042830;28;1730;-65
2023/09/29 12:06:03;;;;;;;;;;;21.50;70.00;;;;;;5041744;28;1574;-65
2023/09/29 12:08:29;;;;;;;;;;;21.50;70.00;;;;;;5039277;28;1284;-65
2023/09/29 12:10:55;;;;;;;;;;;21.40;70.00;;;;;;5037640;28;1583;-66
2023/09/29 12:13:20;;;;;;;;;;;21.40;70.00;;;;;;5040453;28;1445;-65
2023/09/29 12:15:45;;;;;;;;;;;21.40;70.00;;;;;;5040499;28;1507;-65
2023/09/29 12:18:11;;;;;;;;;;;21.50;70.10;;;;;;5027785;28;1902;-65
2023/09/29 12:20:38;;;;;;;;;;;21.50;70.00;;;;;;5038999;28;1363;-65
2023/09/29 12:23:06;;;;;;;;;;;21.50;69.90;;;;;;5038170;28;1427;-65
2023/09/29 12:25:32;;;;;;;;;;;21.50;69.90;;;;;;5039853;28;1277;-65
2023/09/29 12:27:57;;;;;;;;;;;21.50;69.80;;;;;;5038536;28;1510;-65
2023/09/29 12:30:23;;;;;;;;;;;21.40;69.70;;;;;;5039389;28;1488;-66
2023/09/29 12:32:48;;;;;;;;;;;21.50;69.60;;;;;;5038881;28;1454;-65
2023/09/29 12:35:14;;;;;;;;;;;21.50;69.60;;;;;;5040716;28;1465;-65
2023/09/29 12:37:39;;;;;;;;;;;21.50;69.60;;;;;;5039371;28;1404;-65
2023/09/29 12:40:09;;;;;;;;;;;21.50;69.70;;;;;;5039951;28;2207;-66
2023/09/29 12:42:34;;;;;;;;;;;21.50;69.70;;;;;;5038580;28;1989;-66
2023/09/29 12:45:00;;;;;;;;;;;21.50;70.50;;;;;;5022065;28;1578;-66
2023/09/29 12:47:25;;;;;;;;;;;21.50;69.80;;;;;;5038990;28;1280;-65
2023/09/29 12:49:51;;;;;;;;;;;21.50;69.70;;;;;;5067413;22;2012;-67
2023/09/29 12:52:16;;;;;;;;;;;21.50;69.70;;;;;;5046606;28;1962;-68
2023/09/29 12:54:42;;;;;;;;;;;21.50;69.70;;;;;;5048787;28;2085;-68
2023/09/29 12:57:08;;;;;;;;;;;21.50;69.60;;;;;;5052141;28;1290;-68
2023/09/29 12:59:36;;;;;;;;;;;21.50;69.60;;;;;;5034184;28;1921;-70
2023/09/29 13:02:05;;;;;;;;;;;21.50;69.60;;;;;;5017952;28;1368;-69
2023/09/29 13:04:30;;;;;;;;;;;21.40;69.60;;;;;;5052346;28;1253;-67
2023/09/29 13:06:58;;;;;;;;;;;21.50;69.80;;;;;;5052111;28;1304;-68
2023/09/29 13:09:23;;;;;;;;;;;21.50;70.20;;;;;;5052004;28;1323;-68
2023/09/29 13:11:50;;;;;;;;;;;21.50;70.30;;;;;;5034455;28;1526;-69
2023/09/29 13:14:16;;;;;;;;;;;21.50;70.40;;;;;;5052547;28;1516;-68
2023/09/29 13:16:41;;;;;;;;;;;21.50;70.30;;;;;;5033986;28;1297;-68
2023/09/29 13:19:07;;;;;;;;;;;21.40;70.40;;;;;;5033190;28;1914;-66
2023/09/29 13:21:33;;;;;;;;;;;21.50;70.60;;;;;;5051729;28;1297;-67
2023/09/29 13:23:59;;;;;;;;;;;21.50;70.80;;;;;;5050979;28;1335;-68
2023/09/29 13:26:25;;;;;;;;;;;21.50;70.60;;;;;;5033421;28;1662;-67
2023/09/29 13:28:50;;;;;;;;;;;21.40;70.80;;;;;;5032230;28;1591;-66
2023/09/29 13:31:16;;;;;;;;;;;21.50;70.90;;;;;;5051498;28;1275;-67
2023/09/29 13:33:42;;;;;;;;;;;21.50;70.90;;;;;;5049858;28;1678;-66
2023/09/29 13:36:07;;;;;;;;;;;21.40;70.80;;;;;;5051632;28;1430;-66
2023/09/29 13:38:33;;;;;;;;;;;21.50;70.90;;;;;;5050971;28;1926;-66
2023/09/29 13:40:58;;;;;;;;;;;21.50;71.00;;;;;;5050763;28;1283;-66
2023/09/29 13:43:24;;;;;;;;;;;21.50;71.00;;;;;;5050963;28;1438;-66
2023/09/29 13:45:50;;;;;;;;;;;21.50;71.00;;;;;;5051049;28;1454;-66
2023/09/29 13:48:15;;;;;;;;;;;21.50;70.90;;;;;;5051527;28;1328;-67
2023/09/29 13:50:41;;;;;;;;;;;21.50;71.00;;;;;;5044445;28;1305;-67
2023/09/29 13:53:06;;;;;;;;;;;21.50;71.10;;;;;;5049681;28;1165;-67
2023/09/29 13:55:32;;;;;;;;;;;21.50;71.20;;;;;;5051145;28;1005;-67
2023/09/29 13:57:57;;;;;;;;;;;21.50;71.00;;;;;;5050722;28;1241;-68
2023/09/29 14:00:23;;;;;;;;;;;21.50;71.10;;;;;;5048851;28;1909;-68
2023/09/29 14:02:49;;;;;;;;;;;21.50;71.00;;;;;;5044120;28;1521;-67
2023/09/29 14:05:16;;;;;;;;;;;21.50;71.00;;;;;;5049598;28;1428;-67
2023/09/29 14:07:41;;;;;;;;;;;21.50;71.00;;;;;;5044757;28;1196;-67
2023/09/29 14:10:07;;;;;;;;;;;21.50;70.90;;;;;;5051241;28;1292;-67
2023/09/29 14:12:37;;;;;;;;;;;21.40;70.90;;;;;;5043059;28;1042;-67
2023/09/29 14:15:05;;;;;;;;;;;21.50;70.90;;;;;;5050795;28;1020;-67
2023/09/29 14:17:31;;;;;;;;;;;21.50;71.00;;;;;;5048765;28;1129;-68
2023/09/29 14:19:57;;;;;;;;;;;21.50;70.90;;;;;;5049847;28;1910;-67
2023/09/29 14:22:23;;;;;;;;;;;21.50;71.00;;;;;;5050352;28;1958;-67
2023/09/29 14:24:48;;;;;;;;;;;21.50;71.10;;;;;;5048188;28;3059;-68